sensor_id;sensor_type;location;lat;lon;timestamp;P1;durP1;ratioP1;P2;durP2;ratioP2
29934;SDS011;19905;53.370;-6.314;2024-01-16T00:01:11;28.40;;;9.30;;
29934;SDS011;19905;53.370;-6.314;2024-01-16T00:03:41;29.00;;;9.68;;
29934;SDS011;19905;53.370;-6.314;2024-01-16T00:06:09;24.08;;;10.05;;
29934;SDS011;19905;53.370;-6.314;2024-01-16T00:08:37;27.48;;;9.55;;
29934;SDS011;19905;53.370;-6.314;2024-01-16T00:11:07;25.75;;;9.55;;
29934;SDS011;19905;53.370;-6.314;2024-01-16T00:13:35;23.67;;;8.95;;
29934;SDS011;19905;53.370;-6.314;2024-01-16T00:16:04;25.60;;;9.40;;
29934;SDS011;19905;53.370;-6.314;2024-01-16T00:18:32;21.52;;;8.57;;
29934;SDS011;19905;53.370;-6.314;2024-01-16T00:21:01;21.25;;;8.52;;
29934;SDS011;19905;53.370;-6.314;2024-01-16T00:23:30;26.98;;;9.10;;
29934;SDS011;19905;53.370;-6.314;2024-01-16T00:26:00;27.75;;;9.80;;
29934;SDS011;19905;53.370;-6.314;2024-01-16T00:28:30;23.10;;;9.27;;
29934;SDS011;19905;53.370;-6.314;2024-01-16T00:30:59;26.73;;;9.70;;
29934;SDS011;19905;53.370;-6.314;2024-01-16T00:33:27;27.73;;;8.88;;
29934;SDS011;19905;53.370;-6.314;2024-01-16T00:35:56;24.13;;;8.73;;
29934;SDS011;19905;53.370;-6.314;2024-01-16T00:38:24;22.20;;;8.45;;
29934;SDS011;19905;53.370;-6.314;2024-01-16T00:40:52;25.65;;;8.40;;
29934;SDS011;19905;53.370;-6.314;2024-01-16T00:43:21;24.80;;;8.80;;
29934;SDS011;19905;53.370;-6.314;2024-01-16T00:45:51;20.42;;;8.38;;
29934;SDS011;19905;53.370;-6.314;2024-01-16T00:48:19;20.58;;;8.43;;
29934;SDS011;19905;53.370;-6.314;2024-01-16T00:50:48;23.42;;;8.85;;
29934;SDS011;19905;53.370;-6.314;2024-01-16T00:53:17;26.17;;;8.43;;
29934;SDS011;19905;53.370;-6.314;2024-01-16T00:55:45;29.05;;;9.60;;
29934;SDS011;19905;53.370;-6.314;2024-01-16T00:58:13;23.08;;;8.60;;
29934;SDS011;19905;53.370;-6.314;2024-01-16T01:00:42;27.35;;;9.00;;
29934;SDS011;19905;53.370;-6.314;2024-01-16T01:03:11;19.63;;;7.28;;
29934;SDS011;19905;53.370;-6.314;2024-01-16T01:05:40;22.40;;;9.02;;
29934;SDS011;19905;53.370;-6.314;2024-01-16T01:08:09;18.30;;;7.65;;
29934;SDS011;19905;53.370;-6.314;2024-01-16T01:10:38;21.00;;;7.53;;
29934;SDS011;19905;53.370;-6.314;2024-01-16T01:13:06;25.30;;;8.38;;
29934;SDS011;19905;53.370;-6.314;2024-01-16T01:15:34;22.05;;;8.15;;
29934;SDS011;19905;53.370;-6.314;2024-01-16T01:18:03;20.95;;;7.78;;
29934;SDS011;19905;53.370;-6.314;2024-01-16T01:20:35;19.00;;;7.18;;
29934;SDS011;19905;53.370;-6.314;2024-01-16T01:23:03;23.42;;;7.38;;
29934;SDS011;19905;53.370;-6.314;2024-01-16T01:25:32;19.17;;;6.63;;
29934;SDS011;19905;53.370;-6.314;2024-01-16T01:28:00;21.35;;;6.70;;
29934;SDS011;19905;53.370;-6.314;2024-01-16T01:30:29;22.13;;;6.93;;
29934;SDS011;19905;53.370;-6.314;2024-01-16T01:32:57;19.77;;;6.05;;
29934;SDS011;19905;53.370;-6.314;2024-01-16T01:35:25;20.25;;;6.40;;
29934;SDS011;19905;53.370;-6.314;2024-01-16T01:37:56;22.88;;;6.60;;
29934;SDS011;19905;53.370;-6.314;2024-01-16T01:40:24;25.23;;;7.10;;
29934;SDS011;19905;53.370;-6.314;2024-01-16T01:42:52;22.00;;;7.00;;
29934;SDS011;19905;53.370;-6.314;2024-01-16T01:45:20;22.63;;;5.97;;
29934;SDS011;19905;53.370;-6.314;2024-01-16T01:47:49;21.10;;;6.07;;
29934;SDS011;19905;53.370;-6.314;2024-01-16T01:50:18;16.48;;;6.05;;
29934;SDS011;19905;53.370;-6.314;2024-01-16T01:52:46;14.88;;;5.72;;
29934;SDS011;19905;53.370;-6.314;2024-01-16T01:55:16;24.33;;;5.90;;
29934;SDS011;19905;53.370;-6.314;2024-01-16T01:57:44;15.57;;;5.40;;
29934;SDS011;19905;53.370;-6.314;2024-01-16T02:00:13;17.70;;;6.25;;
29934;SDS011;19905;53.370;-6.314;2024-01-16T02:02:44;17.27;;;5.20;;
29934;SDS011;19905;53.370;-6.314;2024-01-16T02:05:14;22.50;;;5.40;;
29934;SDS011;19905;53.370;-6.314;2024-01-16T02:07:43;18.58;;;5.30;;
29934;SDS011;19905;53.370;-6.314;2024-01-16T02:10:12;13.30;;;5.32;;
29934;SDS011;19905;53.370;-6.314;2024-01-16T02:12:42;20.13;;;5.43;;
29934;SDS011;19905;53.370;-6.314;2024-01-16T02:15:10;17.83;;;4.93;;
29934;SDS011;19905;53.370;-6.314;2024-01-16T02:17:39;16.17;;;4.47;;
29934;SDS011;19905;53.370;-6.314;2024-01-16T02:20:08;14.80;;;4.80;;
29934;SDS011;19905;53.370;-6.314;2024-01-16T02:22:37;13.73;;;4.50;;
29934;SDS011;19905;53.370;-6.314;2024-01-16T02:25:07;11.27;;;4.78;;
29934;SDS011;19905;53.370;-6.314;2024-01-16T02:27:36;10.95;;;4.03;;
29934;SDS011;19905;53.370;-6.314;2024-01-16T02:30:05;13.23;;;3.95;;
29934;SDS011;19905;53.370;-6.314;2024-01-16T02:32:34;14.57;;;4.20;;
29934;SDS011;19905;53.370;-6.314;2024-01-16T02:35:02;17.60;;;4.20;;
29934;SDS011;19905;53.370;-6.314;2024-01-16T02:37:31;20.60;;;5.03;;
29934;SDS011;19905;53.370;-6.314;2024-01-16T02:40:00;11.25;;;4.60;;
29934;SDS011;19905;53.370;-6.314;2024-01-16T02:42:34;17.20;;;4.57;;
29934;SDS011;19905;53.370;-6.314;2024-01-16T02:45:04;12.50;;;4.28;;
29934;SDS011;19905;53.370;-6.314;2024-01-16T02:47:34;11.20;;;3.92;;
29934;SDS011;19905;53.370;-6.314;2024-01-16T02:50:03;12.95;;;4.50;;
29934;SDS011;19905;53.370;-6.314;2024-01-16T02:52:32;15.40;;;4.05;;
29934;SDS011;19905;53.370;-6.314;2024-01-16T02:55:00;14.07;;;3.40;;
29934;SDS011;19905;53.370;-6.314;2024-01-16T02:57:29;13.75;;;3.20;;
29934;SDS011;19905;53.370;-6.314;2024-01-16T02:59:59;15.07;;;3.47;;
29934;SDS011;19905;53.370;-6.314;2024-01-16T03:02:27;9.00;;;2.55;;
29934;SDS011;19905;53.370;-6.314;2024-01-16T03:04:57;5.75;;;2.70;;
29934;SDS011;19905;53.370;-6.314;2024-01-16T03:07:25;8.23;;;2.90;;
29934;SDS011;19905;53.370;-6.314;2024-01-16T03:09:54;9.15;;;2.70;;
29934;SDS011;19905;53.370;-6.314;2024-01-16T03:12:22;8.80;;;2.45;;
29934;SDS011;19905;53.370;-6.314;2024-01-16T03:14:50;9.75;;;2.78;;
29934;SDS011;19905;53.370;-6.314;2024-01-16T03:17:21;8.30;;;2.50;;
29934;SDS011;19905;53.370;-6.314;2024-01-16T03:19:49;8.20;;;2.53;;
29934;SDS011;19905;53.370;-6.314;2024-01-16T03:22:18;10.60;;;2.47;;
29934;SDS011;19905;53.370;-6.314;2024-01-16T03:24:46;7.35;;;2.80;;
29934;SDS011;19905;53.370;-6.314;2024-01-16T03:27:14;11.70;;;2.70;;
29934;SDS011;19905;53.370;-6.314;2024-01-16T03:29:42;9.68;;;2.70;;
29934;SDS011;19905;53.370;-6.314;2024-01-16T03:32:11;14.60;;;3.00;;
29934;SDS011;19905;53.370;-6.314;2024-01-16T03:34:40;8.13;;;2.40;;
29934;SDS011;19905;53.370;-6.314;2024-01-16T03:37:09;8.25;;;2.90;;
29934;SDS011;19905;53.370;-6.314;2024-01-16T03:39:37;11.52;;;2.47;;
29934;SDS011;19905;53.370;-6.314;2024-01-16T03:42:05;9.27;;;2.83;;
29934;SDS011;19905;53.370;-6.314;2024-01-16T03:44:37;11.23;;;2.70;;
29934;SDS011;19905;53.370;-6.314;2024-01-16T03:47:06;11.15;;;2.60;;
29934;SDS011;19905;53.370;-6.314;2024-01-16T03:49:34;8.40;;;2.58;;
29934;SDS011;19905;53.370;-6.314;2024-01-16T03:52:05;7.93;;;2.72;;
29934;SDS011;19905;53.370;-6.314;2024-01-16T03:54:33;13.32;;;3.00;;
29934;SDS011;19905;53.370;-6.314;2024-01-16T03:57:02;8.07;;;2.47;;
29934;SDS011;19905;53.370;-6.314;2024-01-16T03:59:30;11.18;;;3.13;;
29934;SDS011;19905;53.370;-6.314;2024-01-16T04:02:00;10.48;;;2.60;;
29934;SDS011;19905;53.370;-6.314;2024-01-16T04:04:30;7.10;;;2.25;;
29934;SDS011;19905;53.370;-6.314;2024-01-16T04:06:58;11.18;;;2.28;;
29934;SDS011;19905;53.370;-6.314;2024-01-16T04:09:28;8.90;;;2.88;;
29934;SDS011;19905;53.370;-6.314;2024-01-16T04:11:56;9.75;;;2.38;;
29934;SDS011;19905;53.370;-6.314;2024-01-16T04:14:25;10.43;;;2.70;;
29934;SDS011;19905;53.370;-6.314;2024-01-16T04:16:53;13.48;;;2.63;;
29934;SDS011;19905;53.370;-6.314;2024-01-16T04:19:21;8.70;;;2.63;;
29934;SDS011;19905;53.370;-6.314;2024-01-16T04:21:50;13.75;;;2.92;;
29934;SDS011;19905;53.370;-6.314;2024-01-16T04:24:18;9.13;;;2.13;;
29934;SDS011;19905;53.370;-6.314;2024-01-16T04:26:48;12.20;;;2.53;;
29934;SDS011;19905;53.370;-6.314;2024-01-16T04:29:17;12.60;;;2.22;;
29934;SDS011;19905;53.370;-6.314;2024-01-16T04:31:45;10.23;;;2.10;;
29934;SDS011;19905;53.370;-6.314;2024-01-16T04:34:14;10.20;;;2.35;;
29934;SDS011;19905;53.370;-6.314;2024-01-16T04:36:43;12.80;;;2.67;;
29934;SDS011;19905;53.370;-6.314;2024-01-16T04:39:11;10.02;;;2.17;;
29934;SDS011;19905;53.370;-6.314;2024-01-16T04:41:40;10.52;;;2.50;;
29934;SDS011;19905;53.370;-6.314;2024-01-16T04:44:10;6.43;;;1.85;;
29934;SDS011;19905;53.370;-6.314;2024-01-16T04:46:38;9.50;;;2.08;;
29934;SDS011;19905;53.370;-6.314;2024-01-16T04:49:06;5.53;;;1.95;;
29934;SDS011;19905;53.370;-6.314;2024-01-16T04:51:35;10.02;;;2.10;;
29934;SDS011;19905;53.370;-6.314;2024-01-16T04:54:06;8.45;;;2.30;;
29934;SDS011;19905;53.370;-6.314;2024-01-16T04:56:37;13.05;;;2.35;;
29934;SDS011;19905;53.370;-6.314;2024-01-16T04:59:06;13.02;;;2.25;;
29934;SDS011;19905;53.370;-6.314;2024-01-16T05:01:36;8.15;;;1.80;;
29934;SDS011;19905;53.370;-6.314;2024-01-16T05:04:05;11.40;;;1.88;;
29934;SDS011;19905;53.370;-6.314;2024-01-16T05:06:34;6.95;;;1.65;;
29934;SDS011;19905;53.370;-6.314;2024-01-16T05:09:03;9.13;;;1.77;;
29934;SDS011;19905;53.370;-6.314;2024-01-16T05:11:31;9.93;;;2.22;;
29934;SDS011;19905;53.370;-6.314;2024-01-16T05:14:00;12.82;;;2.53;;
29934;SDS011;19905;53.370;-6.314;2024-01-16T05:16:28;11.40;;;1.83;;
29934;SDS011;19905;53.370;-6.314;2024-01-16T05:18:58;5.70;;;2.08;;
29934;SDS011;19905;53.370;-6.314;2024-01-16T05:21:26;4.35;;;1.90;;
29934;SDS011;19905;53.370;-6.314;2024-01-16T05:23:54;7.82;;;1.90;;
29934;SDS011;19905;53.370;-6.314;2024-01-16T05:26:23;8.38;;;1.70;;
29934;SDS011;19905;53.370;-6.314;2024-01-16T05:28:54;6.88;;;1.52;;
29934;SDS011;19905;53.370;-6.314;2024-01-16T05:31:22;6.30;;;1.70;;
29934;SDS011;19905;53.370;-6.314;2024-01-16T05:33:53;12.70;;;1.70;;
29934;SDS011;19905;53.370;-6.314;2024-01-16T05:36:26;11.02;;;2.20;;
29934;SDS011;19905;53.370;-6.314;2024-01-16T05:38:55;6.78;;;1.67;;
29934;SDS011;19905;53.370;-6.314;2024-01-16T05:41:23;7.53;;;1.55;;
29934;SDS011;19905;53.370;-6.314;2024-01-16T05:43:51;4.55;;;1.73;;
29934;SDS011;19905;53.370;-6.314;2024-01-16T05:46:20;11.48;;;1.75;;
29934;SDS011;19905;53.370;-6.314;2024-01-16T05:48:48;7.60;;;1.80;;
29934;SDS011;19905;53.370;-6.314;2024-01-16T05:51:16;10.25;;;1.85;;
29934;SDS011;19905;53.370;-6.314;2024-01-16T05:53:47;8.07;;;1.75;;
29934;SDS011;19905;53.370;-6.314;2024-01-16T05:56:15;7.47;;;1.58;;
29934;SDS011;19905;53.370;-6.314;2024-01-16T05:58:43;6.53;;;1.60;;
29934;SDS011;19905;53.370;-6.314;2024-01-16T06:01:11;5.78;;;1.65;;
29934;SDS011;19905;53.370;-6.314;2024-01-16T06:03:40;6.85;;;1.75;;
29934;SDS011;19905;53.370;-6.314;2024-01-16T06:06:09;12.25;;;1.65;;
29934;SDS011;19905;53.370;-6.314;2024-01-16T06:08:37;5.32;;;1.67;;
29934;SDS011;19905;53.370;-6.314;2024-01-16T06:11:07;8.23;;;1.55;;
29934;SDS011;19905;53.370;-6.314;2024-01-16T06:13:37;5.57;;;1.45;;
29934;SDS011;19905;53.370;-6.314;2024-01-16T06:16:06;5.93;;;1.90;;
29934;SDS011;19905;53.370;-6.314;2024-01-16T06:18:35;6.55;;;2.00;;
29934;SDS011;19905;53.370;-6.314;2024-01-16T06:21:03;10.85;;;1.73;;
29934;SDS011;19905;53.370;-6.314;2024-01-16T06:23:31;5.65;;;1.80;;
29934;SDS011;19905;53.370;-6.314;2024-01-16T06:26:00;8.57;;;1.50;;
29934;SDS011;19905;53.370;-6.314;2024-01-16T06:28:30;7.00;;;1.77;;
29934;SDS011;19905;53.370;-6.314;2024-01-16T06:30:58;5.80;;;1.38;;
29934;SDS011;19905;53.370;-6.314;2024-01-16T06:33:26;8.32;;;1.50;;
29934;SDS011;19905;53.370;-6.314;2024-01-16T06:35:55;7.32;;;1.73;;
29934;SDS011;19905;53.370;-6.314;2024-01-16T06:38:23;7.82;;;2.13;;
29934;SDS011;19905;53.370;-6.314;2024-01-16T06:40:52;6.43;;;1.70;;
29934;SDS011;19905;53.370;-6.314;2024-01-16T06:43:20;5.53;;;1.40;;
29934;SDS011;19905;53.370;-6.314;2024-01-16T06:45:50;6.30;;;1.88;;
29934;SDS011;19905;53.370;-6.314;2024-01-16T06:48:18;9.63;;;1.60;;
29934;SDS011;19905;53.370;-6.314;2024-01-16T06:50:47;6.57;;;1.73;;
29934;SDS011;19905;53.370;-6.314;2024-01-16T06:53:15;4.50;;;1.63;;
29934;SDS011;19905;53.370;-6.314;2024-01-16T06:55:44;8.07;;;1.40;;
29934;SDS011;19905;53.370;-6.314;2024-01-16T06:58:12;8.07;;;1.65;;
29934;SDS011;19905;53.370;-6.314;2024-01-16T07:00:40;6.05;;;1.48;;
29934;SDS011;19905;53.370;-6.314;2024-01-16T07:03:11;3.58;;;1.45;;
29934;SDS011;19905;53.370;-6.314;2024-01-16T07:05:40;7.22;;;1.80;;
29934;SDS011;19905;53.370;-6.314;2024-01-16T07:08:10;3.42;;;1.13;;
29934;SDS011;19905;53.370;-6.314;2024-01-16T07:10:38;5.82;;;1.70;;
29934;SDS011;19905;53.370;-6.314;2024-01-16T07:13:06;8.90;;;1.70;;
29934;SDS011;19905;53.370;-6.314;2024-01-16T07:15:35;8.10;;;1.70;;
29934;SDS011;19905;53.370;-6.314;2024-01-16T07:18:03;8.70;;;1.60;;
29934;SDS011;19905;53.370;-6.314;2024-01-16T07:20:33;5.82;;;2.20;;
29934;SDS011;19905;53.370;-6.314;2024-01-16T07:23:01;3.90;;;1.63;;
29934;SDS011;19905;53.370;-6.314;2024-01-16T07:25:29;5.57;;;1.30;;
29934;SDS011;19905;53.370;-6.314;2024-01-16T07:27:58;6.45;;;1.45;;
29934;SDS011;19905;53.370;-6.314;2024-01-16T07:30:26;3.95;;;1.27;;
29934;SDS011;19905;53.370;-6.314;2024-01-16T07:32:55;5.18;;;1.23;;
29934;SDS011;19905;53.370;-6.314;2024-01-16T07:35:23;3.13;;;0.98;;
29934;SDS011;19905;53.370;-6.314;2024-01-16T07:37:55;7.78;;;1.83;;
29934;SDS011;19905;53.370;-6.314;2024-01-16T07:40:25;5.30;;;1.20;;
29934;SDS011;19905;53.370;-6.314;2024-01-16T07:42:53;3.22;;;1.02;;
29934;SDS011;19905;53.370;-6.314;2024-01-16T07:45:22;6.63;;;1.60;;
29934;SDS011;19905;53.370;-6.314;2024-01-16T07:47:50;3.95;;;1.15;;
29934;SDS011;19905;53.370;-6.314;2024-01-16T07:50:18;3.30;;;1.27;;
29934;SDS011;19905;53.370;-6.314;2024-01-16T07:52:47;4.30;;;1.17;;
29934;SDS011;19905;53.370;-6.314;2024-01-16T07:55:17;8.23;;;1.60;;
29934;SDS011;19905;53.370;-6.314;2024-01-16T07:57:49;6.93;;;1.40;;
29934;SDS011;19905;53.370;-6.314;2024-01-16T08:00:18;4.00;;;1.05;;
29934;SDS011;19905;53.370;-6.314;2024-01-16T08:02:46;5.93;;;1.20;;
29934;SDS011;19905;53.370;-6.314;2024-01-16T08:05:15;5.43;;;1.27;;
29934;SDS011;19905;53.370;-6.314;2024-01-16T08:07:43;5.00;;;1.30;;
29934;SDS011;19905;53.370;-6.314;2024-01-16T08:10:12;5.63;;;1.33;;
29934;SDS011;19905;53.370;-6.314;2024-01-16T08:12:46;7.88;;;1.08;;
29934;SDS011;19905;53.370;-6.314;2024-01-16T08:15:14;10.65;;;1.30;;
29934;SDS011;19905;53.370;-6.314;2024-01-16T08:17:46;4.90;;;1.08;;
29934;SDS011;19905;53.370;-6.314;2024-01-16T08:20:15;6.03;;;1.13;;
29934;SDS011;19905;53.370;-6.314;2024-01-16T08:22:43;4.07;;;1.00;;
29934;SDS011;19905;53.370;-6.314;2024-01-16T08:25:12;4.68;;;1.02;;
29934;SDS011;19905;53.370;-6.314;2024-01-16T08:27:42;3.13;;;0.88;;
29934;SDS011;19905;53.370;-6.314;2024-01-16T08:30:12;8.70;;;1.08;;
29934;SDS011;19905;53.370;-6.314;2024-01-16T08:32:41;3.33;;;0.88;;
29934;SDS011;19905;53.370;-6.314;2024-01-16T08:35:09;4.97;;;1.10;;
29934;SDS011;19905;53.370;-6.314;2024-01-16T08:37:38;5.30;;;1.20;;
29934;SDS011;19905;53.370;-6.314;2024-01-16T08:40:07;4.65;;;1.10;;
29934;SDS011;19905;53.370;-6.314;2024-01-16T08:42:35;4.05;;;0.98;;
29934;SDS011;19905;53.370;-6.314;2024-01-16T08:45:04;3.85;;;1.17;;
29934;SDS011;19905;53.370;-6.314;2024-01-16T08:47:34;5.63;;;1.60;;
29934;SDS011;19905;53.370;-6.314;2024-01-16T08:50:03;7.72;;;1.48;;
29934;SDS011;19905;53.370;-6.314;2024-01-16T08:52:33;6.40;;;1.30;;
29934;SDS011;19905;53.370;-6.314;2024-01-16T08:55:02;4.53;;;1.30;;
29934;SDS011;19905;53.370;-6.314;2024-01-16T08:57:30;3.00;;;0.95;;
29934;SDS011;19905;53.370;-6.314;2024-01-16T09:00:02;5.57;;;0.85;;
29934;SDS011;19905;53.370;-6.314;2024-01-16T09:02:30;10.10;;;1.23;;
29934;SDS011;19905;53.370;-6.314;2024-01-16T09:05:00;2.58;;;0.98;;
29934;SDS011;19905;53.370;-6.314;2024-01-16T09:07:29;3.65;;;0.82;;
29934;SDS011;19905;53.370;-6.314;2024-01-16T09:10:00;8.93;;;1.30;;
29934;SDS011;19905;53.370;-6.314;2024-01-16T09:12:28;2.28;;;1.00;;
29934;SDS011;19905;53.370;-6.314;2024-01-16T09:14:56;3.08;;;1.10;;
29934;SDS011;19905;53.370;-6.314;2024-01-16T09:17:25;7.28;;;1.35;;
29934;SDS011;19905;53.370;-6.314;2024-01-16T09:19:53;6.07;;;1.00;;
29934;SDS011;19905;53.370;-6.314;2024-01-16T09:22:23;4.90;;;1.17;;
29934;SDS011;19905;53.370;-6.314;2024-01-16T09:24:51;8.70;;;1.50;;
29934;SDS011;19905;53.370;-6.314;2024-01-16T09:27:19;3.53;;;1.00;;
29934;SDS011;19905;53.370;-6.314;2024-01-16T09:29:48;4.13;;;1.13;;
29934;SDS011;19905;53.370;-6.314;2024-01-16T09:32:16;4.85;;;1.05;;
29934;SDS011;19905;53.370;-6.314;2024-01-16T09:34:46;4.35;;;1.00;;
29934;SDS011;19905;53.370;-6.314;2024-01-16T09:37:14;4.60;;;1.00;;
29934;SDS011;19905;53.370;-6.314;2024-01-16T09:39:44;5.57;;;1.25;;
29934;SDS011;19905;53.370;-6.314;2024-01-16T09:42:12;4.82;;;1.05;;
29934;SDS011;19905;53.370;-6.314;2024-01-16T09:44:41;4.57;;;1.20;;
29934;SDS011;19905;53.370;-6.314;2024-01-16T09:47:09;7.60;;;1.58;;
29934;SDS011;19905;53.370;-6.314;2024-01-16T09:49:38;7.05;;;1.17;;
29934;SDS011;19905;53.370;-6.314;2024-01-16T09:52:07;4.53;;;1.30;;
29934;SDS011;19905;53.370;-6.314;2024-01-16T09:54:36;10.10;;;1.50;;
29934;SDS011;19905;53.370;-6.314;2024-01-16T09:57:06;4.32;;;1.30;;
29934;SDS011;19905;53.370;-6.314;2024-01-16T09:59:35;4.75;;;1.25;;
29934;SDS011;19905;53.370;-6.314;2024-01-16T10:02:06;5.25;;;1.02;;
29934;SDS011;19905;53.370;-6.314;2024-01-16T10:04:36;6.10;;;1.20;;
29934;SDS011;19905;53.370;-6.314;2024-01-16T10:07:05;9.93;;;1.70;;
29934;SDS011;19905;53.370;-6.314;2024-01-16T10:09:34;5.55;;;1.40;;
29934;SDS011;19905;53.370;-6.314;2024-01-16T10:12:02;6.80;;;1.40;;
29934;SDS011;19905;53.370;-6.314;2024-01-16T10:14:32;6.85;;;1.60;;
29934;SDS011;19905;53.370;-6.314;2024-01-16T10:17:01;6.60;;;1.13;;
29934;SDS011;19905;53.370;-6.314;2024-01-16T10:19:33;6.50;;;1.58;;
29934;SDS011;19905;53.370;-6.314;2024-01-16T10:22:18;3.78;;;1.40;;
29934;SDS011;19905;53.370;-6.314;2024-01-16T10:24:56;5.30;;;1.25;;
29934;SDS011;19905;53.370;-6.314;2024-01-16T10:27:31;6.65;;;1.42;;
29934;SDS011;19905;53.370;-6.314;2024-01-16T10:30:01;6.82;;;1.35;;
29934;SDS011;19905;53.370;-6.314;2024-01-16T10:32:35;10.75;;;1.38;;
29934;SDS011;19905;53.370;-6.314;2024-01-16T10:35:05;6.90;;;1.45;;
29934;SDS011;19905;53.370;-6.314;2024-01-16T10:37:41;7.63;;;1.40;;
29934;SDS011;19905;53.370;-6.314;2024-01-16T10:40:12;5.85;;;1.35;;
29934;SDS011;19905;53.370;-6.314;2024-01-16T10:42:42;5.22;;;1.38;;
29934;SDS011;19905;53.370;-6.314;2024-01-16T10:45:16;7.25;;;1.40;;
29934;SDS011;19905;53.370;-6.314;2024-01-16T10:47:45;3.05;;;1.27;;
29934;SDS011;19905;53.370;-6.314;2024-01-16T10:50:14;4.20;;;1.40;;
29934;SDS011;19905;53.370;-6.314;2024-01-16T10:52:44;7.40;;;1.65;;
29934;SDS011;19905;53.370;-6.314;2024-01-16T10:55:17;6.40;;;1.63;;
29934;SDS011;19905;53.370;-6.314;2024-01-16T10:57:48;5.60;;;1.83;;
29934;SDS011;19905;53.370;-6.314;2024-01-16T11:00:19;5.78;;;1.30;;
29934;SDS011;19905;53.370;-6.314;2024-01-16T11:02:52;6.15;;;1.42;;
29934;SDS011;19905;53.370;-6.314;2024-01-16T11:05:23;5.13;;;1.50;;
29934;SDS011;19905;53.370;-6.314;2024-01-16T11:07:54;3.90;;;1.77;;
29934;SDS011;19905;53.370;-6.314;2024-01-16T11:10:23;5.45;;;1.40;;
29934;SDS011;19905;53.370;-6.314;2024-01-16T11:12:52;6.35;;;1.40;;
29934;SDS011;19905;53.370;-6.314;2024-01-16T11:15:22;7.78;;;1.73;;
29934;SDS011;19905;53.370;-6.314;2024-01-16T11:17:52;5.50;;;1.50;;
29934;SDS011;19905;53.370;-6.314;2024-01-16T11:20:21;4.10;;;1.40;;
29934;SDS011;19905;53.370;-6.314;2024-01-16T11:23:10;4.70;;;1.40;;
29934;SDS011;19905;53.370;-6.314;2024-01-16T11:25:38;9.32;;;1.83;;
29934;SDS011;19905;53.370;-6.314;2024-01-16T11:28:10;5.05;;;1.58;;
29934;SDS011;19905;53.370;-6.314;2024-01-16T11:30:40;8.15;;;1.90;;
29934;SDS011;19905;53.370;-6.314;2024-01-16T11:35:53;7.63;;;2.03;;
29934;SDS011;19905;53.370;-6.314;2024-01-16T11:38:21;5.00;;;1.70;;
29934;SDS011;19905;53.370;-6.314;2024-01-16T11:40:52;6.30;;;1.45;;
29934;SDS011;19905;53.370;-6.314;2024-01-16T11:43:36;4.97;;;1.42;;
29934;SDS011;19905;53.370;-6.314;2024-01-16T11:46:07;5.05;;;1.50;;
29934;SDS011;19905;53.370;-6.314;2024-01-16T11:48:38;3.80;;;1.40;;
29934;SDS011;19905;53.370;-6.314;2024-01-16T11:51:22;4.97;;;1.30;;
29934;SDS011;19905;53.370;-6.314;2024-01-16T11:53:50;3.17;;;1.10;;
29934;SDS011;19905;53.370;-6.314;2024-01-16T12:02:01;7.30;;;1.48;;
29934;SDS011;19905;53.370;-6.314;2024-01-16T12:04:33;7.57;;;1.63;;
29934;SDS011;19905;53.370;-6.314;2024-01-16T12:07:01;5.80;;;1.90;;
29934;SDS011;19905;53.370;-6.314;2024-01-16T12:09:30;8.55;;;1.58;;
29934;SDS011;19905;53.370;-6.314;2024-01-16T12:11:59;7.70;;;2.00;;
29934;SDS011;19905;53.370;-6.314;2024-01-16T12:14:28;8.45;;;1.52;;
29934;SDS011;19905;53.370;-6.314;2024-01-16T12:17:09;7.50;;;1.63;;
29934;SDS011;19905;53.370;-6.314;2024-01-16T12:19:38;9.73;;;2.17;;
29934;SDS011;19905;53.370;-6.314;2024-01-16T12:22:10;4.57;;;1.50;;
29934;SDS011;19905;53.370;-6.314;2024-01-16T12:24:40;6.38;;;1.73;;
29934;SDS011;19905;53.370;-6.314;2024-01-16T12:27:09;5.88;;;1.52;;
29934;SDS011;19905;53.370;-6.314;2024-01-16T12:29:37;4.15;;;1.13;;
29934;SDS011;19905;53.370;-6.314;2024-01-16T12:32:09;5.90;;;1.42;;
29934;SDS011;19905;53.370;-6.314;2024-01-16T12:34:45;8.48;;;1.48;;
29934;SDS011;19905;53.370;-6.314;2024-01-16T12:37:15;5.85;;;1.50;;
29934;SDS011;19905;53.370;-6.314;2024-01-16T12:39:43;4.38;;;1.60;;
29934;SDS011;19905;53.370;-6.314;2024-01-16T12:42:11;6.57;;;1.00;;
29934;SDS011;19905;53.370;-6.314;2024-01-16T12:44:41;4.90;;;1.40;;
29934;SDS011;19905;53.370;-6.314;2024-01-16T12:47:16;5.43;;;1.33;;
29934;SDS011;19905;53.370;-6.314;2024-01-16T12:49:46;7.82;;;1.50;;
29934;SDS011;19905;53.370;-6.314;2024-01-16T12:52:14;3.42;;;1.48;;
29934;SDS011;19905;53.370;-6.314;2024-01-16T12:54:43;4.28;;;1.65;;
29934;SDS011;19905;53.370;-6.314;2024-01-16T12:57:16;7.20;;;1.50;;
29934;SDS011;19905;53.370;-6.314;2024-01-16T12:59:47;5.57;;;1.33;;
29934;SDS011;19905;53.370;-6.314;2024-01-16T13:02:21;5.65;;;1.13;;
29934;SDS011;19905;53.370;-6.314;2024-01-16T13:04:57;6.90;;;1.50;;
29934;SDS011;19905;53.370;-6.314;2024-01-16T13:07:27;3.35;;;1.27;;
29934;SDS011;19905;53.370;-6.314;2024-01-16T13:10:07;4.50;;;1.25;;
29934;SDS011;19905;53.370;-6.314;2024-01-16T13:12:36;4.30;;;1.25;;
29934;SDS011;19905;53.370;-6.314;2024-01-16T13:15:04;2.78;;;1.17;;
29934;SDS011;19905;53.370;-6.314;2024-01-16T13:17:34;3.85;;;1.25;;
29934;SDS011;19905;53.370;-6.314;2024-01-16T13:20:04;3.92;;;1.25;;
29934;SDS011;19905;53.370;-6.314;2024-01-16T13:22:37;6.55;;;1.17;;
29934;SDS011;19905;53.370;-6.314;2024-01-16T13:25:13;5.13;;;1.30;;
29934;SDS011;19905;53.370;-6.314;2024-01-16T13:27:41;6.68;;;1.40;;
29934;SDS011;19905;53.370;-6.314;2024-01-16T13:30:09;7.97;;;1.50;;
29934;SDS011;19905;53.370;-6.314;2024-01-16T13:32:40;8.05;;;1.50;;
29934;SDS011;19905;53.370;-6.314;2024-01-16T13:35:09;5.10;;;1.40;;
29934;SDS011;19905;53.370;-6.314;2024-01-16T13:37:39;7.35;;;1.60;;
29934;SDS011;19905;53.370;-6.314;2024-01-16T13:40:08;4.05;;;1.58;;
29934;SDS011;19905;53.370;-6.314;2024-01-16T13:42:38;5.95;;;1.50;;
29934;SDS011;19905;53.370;-6.314;2024-01-16T13:45:06;3.42;;;1.00;;
29934;SDS011;19905;53.370;-6.314;2024-01-16T13:47:35;6.38;;;1.23;;
29934;SDS011;19905;53.370;-6.314;2024-01-16T13:50:08;6.22;;;1.40;;
29934;SDS011;19905;53.370;-6.314;2024-01-16T13:52:36;9.07;;;1.40;;
29934;SDS011;19905;53.370;-6.314;2024-01-16T13:55:07;8.00;;;1.10;;
29934;SDS011;19905;53.370;-6.314;2024-01-16T13:57:36;5.32;;;1.73;;
29934;SDS011;19905;53.370;-6.314;2024-01-16T14:00:05;4.40;;;1.42;;
29934;SDS011;19905;53.370;-6.314;2024-01-16T14:02:34;5.85;;;1.20;;
29934;SDS011;19905;53.370;-6.314;2024-01-16T14:05:04;8.18;;;1.63;;
29934;SDS011;19905;53.370;-6.314;2024-01-16T14:07:34;5.85;;;1.38;;
29934;SDS011;19905;53.370;-6.314;2024-01-16T14:10:04;8.02;;;1.60;;
29934;SDS011;19905;53.370;-6.314;2024-01-16T14:12:34;7.25;;;1.63;;
29934;SDS011;19905;53.370;-6.314;2024-01-16T14:15:04;6.75;;;1.73;;
29934;SDS011;19905;53.370;-6.314;2024-01-16T14:17:38;3.97;;;1.33;;
29934;SDS011;19905;53.370;-6.314;2024-01-16T14:20:07;3.95;;;1.52;;
29934;SDS011;19905;53.370;-6.314;2024-01-16T14:22:39;4.60;;;1.40;;
29934;SDS011;19905;53.370;-6.314;2024-01-16T14:25:08;4.60;;;1.60;;
29934;SDS011;19905;53.370;-6.314;2024-01-16T14:27:39;5.00;;;1.70;;
29934;SDS011;19905;53.370;-6.314;2024-01-16T14:30:09;6.90;;;1.90;;
29934;SDS011;19905;53.370;-6.314;2024-01-16T14:32:38;5.20;;;1.70;;
29934;SDS011;19905;53.370;-6.314;2024-01-16T14:35:08;7.97;;;1.77;;
29934;SDS011;19905;53.370;-6.314;2024-01-16T14:37:38;7.43;;;1.63;;
29934;SDS011;19905;53.370;-6.314;2024-01-16T14:40:07;3.50;;;1.50;;
29934;SDS011;19905;53.370;-6.314;2024-01-16T14:42:39;8.43;;;1.70;;
29934;SDS011;19905;53.370;-6.314;2024-01-16T14:45:08;3.95;;;1.60;;
29934;SDS011;19905;53.370;-6.314;2024-01-16T14:47:38;8.23;;;1.60;;
29934;SDS011;19905;53.370;-6.314;2024-01-16T14:50:07;6.63;;;1.52;;
29934;SDS011;19905;53.370;-6.314;2024-01-16T14:52:36;9.45;;;1.70;;